Portland, Oregon
Traffic Map
Current Weather Conditions
Portland, Oregon
Clear
Clear
22°
Feels Like: 22°
Wind Chill: 22° Ceiling: Unl
Heat Index: 22° Visibility: 10mi
Dew Point: 13° Wind: 5mph
Humidity: 59% Direction: 330° (NNW)
Pressure: 30.05in Gusts: 0mph
Raw Report DataKPDX 280753Z 33004KT 10SM CLR 22/13 A3005 RMK AO2 SLP174 T02170133 403110150
Traffic Incident Summary
Active as of:
Severity:
Category:
InformationThere was an issue retrieving the traffic information for this location. Please try a different location or try again shortly.
Advertisements
Track Severe Weather on mobile